sensor_id;sensor_type;location;lat;lon;timestamp;P1;durP1;ratioP1;P2;durP2;ratioP2
39860;SDS011;25529;49.346;20.886;2023-01-31T00:01:26;51.03;;;23.83;;
39860;SDS011;25529;49.346;20.886;2023-01-31T00:03:58;47.97;;;22.83;;
39860;SDS011;25529;49.346;20.886;2023-01-31T00:06:25;49.03;;;23.45;;
39860;SDS011;25529;49.346;20.886;2023-01-31T00:08:50;50.20;;;22.13;;
39860;SDS011;25529;49.346;20.886;2023-01-31T00:11:17;47.30;;;22.33;;
39860;SDS011;25529;49.346;20.886;2023-01-31T00:13:51;45.85;;;22.55;;
39860;SDS011;25529;49.346;20.886;2023-01-31T00:16:17;50.90;;;23.88;;
39860;SDS011;25529;49.346;20.886;2023-01-31T00:18:48;49.10;;;22.25;;
39860;SDS011;25529;49.346;20.886;2023-01-31T00:23:40;48.88;;;21.98;;
39860;SDS011;25529;49.346;20.886;2023-01-31T00:26:10;43.28;;;19.88;;
39860;SDS011;25529;49.346;20.886;2023-01-31T00:28:39;47.50;;;21.35;;
39860;SDS011;25529;49.346;20.886;2023-01-31T00:31:04;47.38;;;23.05;;
39860;SDS011;25529;49.346;20.886;2023-01-31T00:33:30;44.20;;;20.33;;
39860;SDS011;25529;49.346;20.886;2023-01-31T00:35:55;39.47;;;16.65;;
39860;SDS011;25529;49.346;20.886;2023-01-31T00:38:20;41.95;;;18.88;;
39860;SDS011;25529;49.346;20.886;2023-01-31T00:40:52;41.60;;;19.77;;
39860;SDS011;25529;49.346;20.886;2023-01-31T00:43:18;31.15;;;13.32;;
39860;SDS011;25529;49.346;20.886;2023-01-31T00:45:46;33.22;;;14.48;;
39860;SDS011;25529;49.346;20.886;2023-01-31T00:48:12;39.93;;;16.77;;
39860;SDS011;25529;49.346;20.886;2023-01-31T00:50:37;38.72;;;16.77;;
39860;SDS011;25529;49.346;20.886;2023-01-31T00:53:03;38.70;;;16.55;;
39860;SDS011;25529;49.346;20.886;2023-01-31T00:55:31;36.35;;;15.77;;
39860;SDS011;25529;49.346;20.886;2023-01-31T00:57:59;38.92;;;16.85;;
39860;SDS011;25529;49.346;20.886;2023-01-31T01:00:25;37.05;;;16.33;;
39860;SDS011;25529;49.346;20.886;2023-01-31T01:02:50;35.65;;;15.63;;
39860;SDS011;25529;49.346;20.886;2023-01-31T01:05:15;36.53;;;16.27;;
39860;SDS011;25529;49.346;20.886;2023-01-31T01:07:44;40.67;;;16.90;;
39860;SDS011;25529;49.346;20.886;2023-01-31T01:10:09;43.38;;;18.50;;
39860;SDS011;25529;49.346;20.886;2023-01-31T01:12:35;40.15;;;17.67;;
39860;SDS011;25529;49.346;20.886;2023-01-31T01:15:02;37.92;;;16.88;;
39860;SDS011;25529;49.346;20.886;2023-01-31T01:17:28;39.60;;;17.05;;
39860;SDS011;25529;49.346;20.886;2023-01-31T01:19:53;37.70;;;16.13;;
39860;SDS011;25529;49.346;20.886;2023-01-31T01:22:19;41.13;;;18.23;;
39860;SDS011;25529;49.346;20.886;2023-01-31T01:24:44;41.20;;;17.77;;
39860;SDS011;25529;49.346;20.886;2023-01-31T01:27:10;35.38;;;15.18;;
39860;SDS011;25529;49.346;20.886;2023-01-31T01:29:36;38.00;;;16.73;;
39860;SDS011;25529;49.346;20.886;2023-01-31T01:32:04;35.13;;;14.68;;
39860;SDS011;25529;49.346;20.886;2023-01-31T01:34:30;33.20;;;13.38;;
39860;SDS011;25529;49.346;20.886;2023-01-31T01:36:58;40.75;;;18.48;;
39860;SDS011;25529;49.346;20.886;2023-01-31T01:39:23;45.22;;;20.58;;
39860;SDS011;25529;49.346;20.886;2023-01-31T01:41:53;43.28;;;19.90;;
39860;SDS011;25529;49.346;20.886;2023-01-31T01:47:14;45.50;;;20.60;;
39860;SDS011;25529;49.346;20.886;2023-01-31T01:49:43;41.85;;;18.48;;
39860;SDS011;25529;49.346;20.886;2023-01-31T01:52:17;42.20;;;18.98;;
39860;SDS011;25529;49.346;20.886;2023-01-31T01:54:45;31.52;;;12.15;;
39860;SDS011;25529;49.346;20.886;2023-01-31T01:57:12;26.80;;;9.57;;
39860;SDS011;25529;49.346;20.886;2023-01-31T01:59:42;27.08;;;9.48;;
39860;SDS011;25529;49.346;20.886;2023-01-31T02:02:09;25.95;;;9.15;;
39860;SDS011;25529;49.346;20.886;2023-01-31T02:04:36;24.80;;;8.82;;
39860;SDS011;25529;49.346;20.886;2023-01-31T02:07:16;26.85;;;9.18;;
39860;SDS011;25529;49.346;20.886;2023-01-31T02:12:54;25.30;;;8.18;;
39860;SDS011;25529;49.346;20.886;2023-01-31T02:15:20;23.55;;;8.10;;
39860;SDS011;25529;49.346;20.886;2023-01-31T02:17:46;24.17;;;8.13;;
39860;SDS011;25529;49.346;20.886;2023-01-31T02:39:00;20.58;;;6.50;;
39860;SDS011;25529;49.346;20.886;2023-01-31T02:46:10;27.75;;;10.38;;
39860;SDS011;25529;49.346;20.886;2023-01-31T02:51:17;20.00;;;6.40;;
39860;SDS011;25529;49.346;20.886;2023-01-31T02:53:55;37.50;;;14.55;;
39860;SDS011;25529;49.346;20.886;2023-01-31T02:56:30;28.70;;;10.00;;
39860;SDS011;25529;49.346;20.886;2023-01-31T03:01:59;14.77;;;4.70;;
39860;SDS011;25529;49.346;20.886;2023-01-31T03:04:31;11.15;;;4.03;;
39860;SDS011;25529;49.346;20.886;2023-01-31T03:07:06;11.00;;;3.85;;
39860;SDS011;25529;49.346;20.886;2023-01-31T03:09:40;31.48;;;11.80;;
39860;SDS011;25529;49.346;20.886;2023-01-31T03:20:29;14.95;;;5.00;;
39860;SDS011;25529;49.346;20.886;2023-01-31T03:23:01;17.25;;;6.05;;
39860;SDS011;25529;49.346;20.886;2023-01-31T03:25:30;13.15;;;4.38;;
39860;SDS011;25529;49.346;20.886;2023-01-31T03:27:58;10.65;;;3.88;;
39860;SDS011;25529;49.346;20.886;2023-01-31T03:33:01;12.68;;;4.18;;
39860;SDS011;25529;49.346;20.886;2023-01-31T03:35:34;12.35;;;3.95;;
39860;SDS011;25529;49.346;20.886;2023-01-31T03:38:10;16.27;;;4.97;;
39860;SDS011;25529;49.346;20.886;2023-01-31T03:40:44;25.35;;;8.02;;
39860;SDS011;25529;49.346;20.886;2023-01-31T03:45:50;16.58;;;5.13;;
39860;SDS011;25529;49.346;20.886;2023-01-31T03:48:19;11.02;;;3.88;;
39860;SDS011;25529;49.346;20.886;2023-01-31T03:50:57;11.07;;;3.70;;
39860;SDS011;25529;49.346;20.886;2023-01-31T03:53:31;10.60;;;3.42;;
39860;SDS011;25529;49.346;20.886;2023-01-31T03:56:08;11.10;;;3.85;;
39860;SDS011;25529;49.346;20.886;2023-01-31T03:58:36;13.25;;;4.50;;
39860;SDS011;25529;49.346;20.886;2023-01-31T04:01:03;13.80;;;4.03;;
39860;SDS011;25529;49.346;20.886;2023-01-31T04:03:41;11.05;;;4.03;;
39860;SDS011;25529;49.346;20.886;2023-01-31T04:06:08;12.80;;;3.90;;
39860;SDS011;25529;49.346;20.886;2023-01-31T04:08:37;6.63;;;3.40;;
39860;SDS011;25529;49.346;20.886;2023-01-31T04:11:03;8.10;;;3.25;;
39860;SDS011;25529;49.346;20.886;2023-01-31T04:13:32;10.75;;;3.40;;
39860;SDS011;25529;49.346;20.886;2023-01-31T04:16:18;12.57;;;3.80;;
39860;SDS011;25529;49.346;20.886;2023-01-31T04:18:52;14.18;;;4.10;;
39860;SDS011;25529;49.346;20.886;2023-01-31T04:21:26;11.45;;;3.13;;
39860;SDS011;25529;49.346;20.886;2023-01-31T04:23:52;12.50;;;3.30;;
39860;SDS011;25529;49.346;20.886;2023-01-31T04:26:23;15.05;;;3.60;;
39860;SDS011;25529;49.346;20.886;2023-01-31T04:29:08;9.13;;;3.50;;
39860;SDS011;25529;49.346;20.886;2023-01-31T04:31:39;11.20;;;3.30;;
39860;SDS011;25529;49.346;20.886;2023-01-31T04:34:05;11.18;;;3.30;;
39860;SDS011;25529;49.346;20.886;2023-01-31T04:36:34;12.90;;;4.28;;
39860;SDS011;25529;49.346;20.886;2023-01-31T04:42:13;14.70;;;3.70;;
39860;SDS011;25529;49.346;20.886;2023-01-31T04:44:38;9.50;;;3.38;;
39860;SDS011;25529;49.346;20.886;2023-01-31T04:47:04;13.15;;;3.38;;
39860;SDS011;25529;49.346;20.886;2023-01-31T04:49:29;16.50;;;4.40;;
39860;SDS011;25529;49.346;20.886;2023-01-31T04:52:16;15.82;;;3.88;;
39860;SDS011;25529;49.346;20.886;2023-01-31T04:54:43;18.95;;;3.60;;
39860;SDS011;25529;49.346;20.886;2023-01-31T04:57:08;15.18;;;3.85;;
39860;SDS011;25529;49.346;20.886;2023-01-31T04:59:37;13.85;;;3.65;;
39860;SDS011;25529;49.346;20.886;2023-01-31T05:02:08;15.02;;;3.45;;
39860;SDS011;25529;49.346;20.886;2023-01-31T05:04:33;17.05;;;4.45;;
39860;SDS011;25529;49.346;20.886;2023-01-31T05:06:59;14.90;;;3.67;;
39860;SDS011;25529;49.346;20.886;2023-01-31T05:09:29;12.57;;;3.80;;
39860;SDS011;25529;49.346;20.886;2023-01-31T05:11:54;12.50;;;3.72;;
39860;SDS011;25529;49.346;20.886;2023-01-31T05:14:20;14.35;;;3.60;;
39860;SDS011;25529;49.346;20.886;2023-01-31T05:16:45;16.52;;;3.80;;
39860;SDS011;25529;49.346;20.886;2023-01-31T05:19:13;14.18;;;3.92;;
39860;SDS011;25529;49.346;20.886;2023-01-31T05:21:39;15.68;;;3.65;;
39860;SDS011;25529;49.346;20.886;2023-01-31T05:24:23;15.25;;;3.42;;
39860;SDS011;25529;49.346;20.886;2023-01-31T05:26:49;14.90;;;4.00;;
39860;SDS011;25529;49.346;20.886;2023-01-31T05:29:26;13.60;;;3.55;;
39860;SDS011;25529;49.346;20.886;2023-01-31T05:31:55;19.73;;;4.03;;
39860;SDS011;25529;49.346;20.886;2023-01-31T05:34:22;15.90;;;3.92;;
39860;SDS011;25529;49.346;20.886;2023-01-31T05:36:49;8.43;;;3.53;;
39860;SDS011;25529;49.346;20.886;2023-01-31T05:39:17;12.80;;;3.50;;
39860;SDS011;25529;49.346;20.886;2023-01-31T05:41:42;20.55;;;3.92;;
39860;SDS011;25529;49.346;20.886;2023-01-31T05:44:08;16.27;;;3.72;;
39860;SDS011;25529;49.346;20.886;2023-01-31T05:46:44;13.98;;;3.72;;
39860;SDS011;25529;49.346;20.886;2023-01-31T05:49:13;17.48;;;4.50;;
39860;SDS011;25529;49.346;20.886;2023-01-31T05:51:39;14.85;;;4.25;;
39860;SDS011;25529;49.346;20.886;2023-01-31T05:54:06;16.30;;;4.32;;
39860;SDS011;25529;49.346;20.886;2023-01-31T05:56:31;20.33;;;4.03;;
39860;SDS011;25529;49.346;20.886;2023-01-31T05:58:57;14.95;;;3.63;;
39860;SDS011;25529;49.346;20.886;2023-01-31T06:01:23;16.70;;;3.92;;
39860;SDS011;25529;49.346;20.886;2023-01-31T06:03:49;11.50;;;3.38;;
39860;SDS011;25529;49.346;20.886;2023-01-31T06:06:14;19.33;;;3.85;;
39860;SDS011;25529;49.346;20.886;2023-01-31T06:08:40;22.42;;;4.28;;
39860;SDS011;25529;49.346;20.886;2023-01-31T06:11:06;18.45;;;4.25;;
39860;SDS011;25529;49.346;20.886;2023-01-31T06:13:35;17.02;;;3.75;;
39860;SDS011;25529;49.346;20.886;2023-01-31T06:16:01;15.68;;;3.72;;
39860;SDS011;25529;49.346;20.886;2023-01-31T06:18:26;12.07;;;3.38;;
39860;SDS011;25529;49.346;20.886;2023-01-31T06:20:52;16.40;;;3.65;;
39860;SDS011;25529;49.346;20.886;2023-01-31T06:23:18;20.10;;;3.80;;
39860;SDS011;25529;49.346;20.886;2023-01-31T06:25:52;14.85;;;3.72;;
39860;SDS011;25529;49.346;20.886;2023-01-31T06:28:18;14.05;;;3.33;;
39860;SDS011;25529;49.346;20.886;2023-01-31T06:30:52;20.83;;;3.67;;
39860;SDS011;25529;49.346;20.886;2023-01-31T06:33:18;10.45;;;3.40;;
39860;SDS011;25529;49.346;20.886;2023-01-31T06:35:49;9.63;;;3.40;;
39860;SDS011;25529;49.346;20.886;2023-01-31T06:38:22;12.40;;;3.22;;
39860;SDS011;25529;49.346;20.886;2023-01-31T06:40:47;14.82;;;3.42;;
39860;SDS011;25529;49.346;20.886;2023-01-31T06:43:13;17.55;;;3.47;;
39860;SDS011;25529;49.346;20.886;2023-01-31T06:45:41;15.85;;;3.58;;
39860;SDS011;25529;49.346;20.886;2023-01-31T06:48:06;18.08;;;3.80;;
39860;SDS011;25529;49.346;20.886;2023-01-31T06:50:32;15.15;;;3.00;;
39860;SDS011;25529;49.346;20.886;2023-01-31T06:52:57;16.95;;;4.53;;
39860;SDS011;25529;49.346;20.886;2023-01-31T06:55:26;12.90;;;4.03;;
39860;SDS011;25529;49.346;20.886;2023-01-31T06:57:51;18.25;;;4.53;;
39860;SDS011;25529;49.346;20.886;2023-01-31T07:00:17;13.90;;;4.15;;
39860;SDS011;25529;49.346;20.886;2023-01-31T07:02:43;15.13;;;3.58;;
39860;SDS011;25529;49.346;20.886;2023-01-31T07:05:14;27.90;;;9.43;;
39860;SDS011;25529;49.346;20.886;2023-01-31T07:07:47;18.00;;;4.63;;
39860;SDS011;25529;49.346;20.886;2023-01-31T07:10:23;14.50;;;3.22;;
39860;SDS011;25529;49.346;20.886;2023-01-31T07:12:53;14.90;;;3.58;;
39860;SDS011;25529;49.346;20.886;2023-01-31T07:15:40;18.48;;;3.35;;
39860;SDS011;25529;49.346;20.886;2023-01-31T07:18:05;34.20;;;13.50;;
39860;SDS011;25529;49.346;20.886;2023-01-31T07:20:46;13.98;;;3.95;;
39860;SDS011;25529;49.346;20.886;2023-01-31T07:23:33;13.70;;;3.58;;
39860;SDS011;25529;49.346;20.886;2023-01-31T07:28:36;37.22;;;12.18;;
39860;SDS011;25529;49.346;20.886;2023-01-31T07:31:06;13.73;;;4.05;;
39860;SDS011;25529;49.346;20.886;2023-01-31T07:33:35;16.98;;;4.00;;
39860;SDS011;25529;49.346;20.886;2023-01-31T07:36:11;14.38;;;3.45;;
39860;SDS011;25529;49.346;20.886;2023-01-31T07:38:52;13.40;;;3.30;;
39860;SDS011;25529;49.346;20.886;2023-01-31T07:41:31;13.07;;;3.60;;
39860;SDS011;25529;49.346;20.886;2023-01-31T07:43:59;19.15;;;3.70;;
39860;SDS011;25529;49.346;20.886;2023-01-31T07:46:25;15.70;;;3.65;;
39860;SDS011;25529;49.346;20.886;2023-01-31T07:49:08;11.23;;;3.80;;
39860;SDS011;25529;49.346;20.886;2023-01-31T07:51:34;19.02;;;4.25;;
39860;SDS011;25529;49.346;20.886;2023-01-31T07:54:00;15.55;;;3.88;;
39860;SDS011;25529;49.346;20.886;2023-01-31T07:56:34;17.20;;;4.65;;
39860;SDS011;25529;49.346;20.886;2023-01-31T08:01:56;18.38;;;5.15;;
39860;SDS011;25529;49.346;20.886;2023-01-31T08:04:40;13.18;;;4.00;;
39860;SDS011;25529;49.346;20.886;2023-01-31T08:07:11;13.27;;;3.55;;
39860;SDS011;25529;49.346;20.886;2023-01-31T08:10:06;15.80;;;3.90;;
39860;SDS011;25529;49.346;20.886;2023-01-31T08:12:33;10.85;;;3.28;;
39860;SDS011;25529;49.346;20.886;2023-01-31T08:14:59;15.98;;;3.78;;
39860;SDS011;25529;49.346;20.886;2023-01-31T08:17:28;21.98;;;7.18;;
39860;SDS011;25529;49.346;20.886;2023-01-31T08:19:54;36.95;;;15.23;;
39860;SDS011;25529;49.346;20.886;2023-01-31T08:22:20;23.90;;;7.95;;
39860;SDS011;25529;49.346;20.886;2023-01-31T08:24:48;28.50;;;10.38;;
39860;SDS011;25529;49.346;20.886;2023-01-31T08:27:14;36.85;;;14.23;;
39860;SDS011;25529;49.346;20.886;2023-01-31T08:29:43;18.88;;;5.25;;
39860;SDS011;25529;49.346;20.886;2023-01-31T08:32:11;28.33;;;9.15;;
39860;SDS011;25529;49.346;20.886;2023-01-31T08:34:39;15.98;;;5.15;;
39860;SDS011;25529;49.346;20.886;2023-01-31T08:37:08;13.55;;;3.70;;
39860;SDS011;25529;49.346;20.886;2023-01-31T08:39:33;15.73;;;4.10;;
39860;SDS011;25529;49.346;20.886;2023-01-31T08:42:14;20.95;;;5.03;;
39860;SDS011;25529;49.346;20.886;2023-01-31T08:44:42;22.02;;;6.50;;
39860;SDS011;25529;49.346;20.886;2023-01-31T08:47:08;15.35;;;4.00;;
39860;SDS011;25529;49.346;20.886;2023-01-31T08:49:36;40.55;;;21.67;;
39860;SDS011;25529;49.346;20.886;2023-01-31T08:52:12;19.52;;;4.95;;
39860;SDS011;25529;49.346;20.886;2023-01-31T08:54:40;16.35;;;4.75;;
39860;SDS011;25529;49.346;20.886;2023-01-31T08:57:17;15.77;;;4.07;;
39860;SDS011;25529;49.346;20.886;2023-01-31T09:00:07;15.23;;;4.00;;
39860;SDS011;25529;49.346;20.886;2023-01-31T09:02:35;14.25;;;4.32;;
39860;SDS011;25529;49.346;20.886;2023-01-31T09:05:10;14.27;;;4.13;;
39860;SDS011;25529;49.346;20.886;2023-01-31T09:07:42;15.25;;;3.85;;
39860;SDS011;25529;49.346;20.886;2023-01-31T09:10:18;15.35;;;4.15;;
39860;SDS011;25529;49.346;20.886;2023-01-31T09:12:54;20.83;;;5.00;;
39860;SDS011;25529;49.346;20.886;2023-01-31T09:15:20;13.55;;;3.92;;
39860;SDS011;25529;49.346;20.886;2023-01-31T09:17:45;15.77;;;3.90;;
39860;SDS011;25529;49.346;20.886;2023-01-31T09:20:14;14.88;;;3.83;;
39860;SDS011;25529;49.346;20.886;2023-01-31T09:22:52;14.02;;;3.92;;
39860;SDS011;25529;49.346;20.886;2023-01-31T09:25:38;17.45;;;3.85;;
39860;SDS011;25529;49.346;20.886;2023-01-31T09:28:30;17.25;;;4.65;;
39860;SDS011;25529;49.346;20.886;2023-01-31T09:31:11;19.83;;;4.20;;
39860;SDS011;25529;49.346;20.886;2023-01-31T09:33:36;14.23;;;4.50;;
39860;SDS011;25529;49.346;20.886;2023-01-31T09:36:20;16.77;;;4.25;;
39860;SDS011;25529;49.346;20.886;2023-01-31T09:38:57;19.33;;;5.18;;
39860;SDS011;25529;49.346;20.886;2023-01-31T09:41:36;16.33;;;4.07;;
39860;SDS011;25529;49.346;20.886;2023-01-31T09:46:48;17.38;;;4.25;;
39860;SDS011;25529;49.346;20.886;2023-01-31T09:49:24;24.38;;;7.15;;
39860;SDS011;25529;49.346;20.886;2023-01-31T09:51:57;26.67;;;7.38;;
39860;SDS011;25529;49.346;20.886;2023-01-31T09:54:28;17.20;;;5.38;;
39860;SDS011;25529;49.346;20.886;2023-01-31T09:57:08;17.90;;;3.90;;
39860;SDS011;25529;49.346;20.886;2023-01-31T10:00:18;14.52;;;4.00;;
39860;SDS011;25529;49.346;20.886;2023-01-31T10:05:21;18.30;;;4.10;;
39860;SDS011;25529;49.346;20.886;2023-01-31T10:12:44;17.58;;;3.95;;
39860;SDS011;25529;49.346;20.886;2023-01-31T10:18:01;17.23;;;4.40;;
39860;SDS011;25529;49.346;20.886;2023-01-31T10:25:39;16.92;;;4.40;;
39860;SDS011;25529;49.346;20.886;2023-01-31T10:28:29;17.92;;;4.40;;
39860;SDS011;25529;49.346;20.886;2023-01-31T10:30:57;14.38;;;4.00;;
39860;SDS011;25529;49.346;20.886;2023-01-31T10:35:49;18.02;;;4.13;;
39860;SDS011;25529;49.346;20.886;2023-01-31T10:41:28;16.65;;;4.15;;
39860;SDS011;25529;49.346;20.886;2023-01-31T10:43:58;12.35;;;3.70;;
39860;SDS011;25529;49.346;20.886;2023-01-31T10:46:27;14.15;;;3.58;;
39860;SDS011;25529;49.346;20.886;2023-01-31T10:49:23;20.30;;;4.60;;
39860;SDS011;25529;49.346;20.886;2023-01-31T10:54:36;14.90;;;4.38;;
39860;SDS011;25529;49.346;20.886;2023-01-31T10:57:26;13.15;;;3.67;;
39860;SDS011;25529;49.346;20.886;2023-01-31T10:59:54;14.88;;;3.83;;
39860;SDS011;25529;49.346;20.886;2023-01-31T11:02:28;15.50;;;4.50;;
39860;SDS011;25529;49.346;20.886;2023-01-31T11:05:17;34.65;;;12.32;;
39860;SDS011;25529;49.346;20.886;2023-01-31T11:08:05;18.20;;;4.20;;
39860;SDS011;25529;49.346;20.886;2023-01-31T11:10:41;14.90;;;3.53;;
39860;SDS011;25529;49.346;20.886;2023-01-31T11:13:17;12.52;;;3.45;;
39860;SDS011;25529;49.346;20.886;2023-01-31T11:15:51;14.18;;;3.50;;
39860;SDS011;25529;49.346;20.886;2023-01-31T11:18:25;14.35;;;3.65;;
39860;SDS011;25529;49.346;20.886;2023-01-31T11:21:01;11.27;;;3.40;;
39860;SDS011;25529;49.346;20.886;2023-01-31T11:26:23;8.27;;;3.20;;
39860;SDS011;25529;49.346;20.886;2023-01-31T11:28:52;19.45;;;4.05;;
39860;SDS011;25529;49.346;20.886;2023-01-31T11:31:35;12.88;;;3.42;;
39860;SDS011;25529;49.346;20.886;2023-01-31T11:34:04;13.07;;;3.67;;
39860;SDS011;25529;49.346;20.886;2023-01-31T11:37:02;16.67;;;3.90;;
39860;SDS011;25529;49.346;20.886;2023-01-31T11:40:04;16.17;;;3.90;;
39860;SDS011;25529;49.346;20.886;2023-01-31T11:42:52;50.60;;;22.55;;
39860;SDS011;25529;49.346;20.886;2023-01-31T11:45:24;18.80;;;5.18;;
39860;SDS011;25529;49.346;20.886;2023-01-31T11:47:58;15.32;;;3.70;;
39860;SDS011;25529;49.346;20.886;2023-01-31T11:50:33;17.40;;;3.55;;
39860;SDS011;25529;49.346;20.886;2023-01-31T11:53:12;12.40;;;3.90;;
39860;SDS011;25529;49.346;20.886;2023-01-31T11:55:50;13.13;;;3.67;;
39860;SDS011;25529;49.346;20.886;2023-01-31T12:04:47;20.83;;;4.72;;
39860;SDS011;25529;49.346;20.886;2023-01-31T12:09:50;11.35;;;3.63;;
39860;SDS011;25529;49.346;20.886;2023-01-31T12:12:41;16.35;;;3.85;;
39860;SDS011;25529;49.346;20.886;2023-01-31T12:18:07;24.27;;;6.45;;
39860;SDS011;25529;49.346;20.886;2023-01-31T12:29:15;17.42;;;4.97;;
39860;SDS011;25529;49.346;20.886;2023-01-31T12:31:49;19.42;;;5.55;;
39860;SDS011;25529;49.346;20.886;2023-01-31T12:34:34;38.42;;;16.10;;
39860;SDS011;25529;49.346;20.886;2023-01-31T12:39:30;21.30;;;5.78;;
39860;SDS011;25529;49.346;20.886;2023-01-31T12:42:19;14.60;;;4.20;;
39860;SDS011;25529;49.346;20.886;2023-01-31T12:45:11;18.00;;;4.80;;
39860;SDS011;25529;49.346;20.886;2023-01-31T12:58:37;18.40;;;4.38;;
39860;SDS011;25529;49.346;20.886;2023-01-31T13:06:35;14.00;;;3.97;;
39860;SDS011;25529;49.346;20.886;2023-01-31T13:09:21;13.63;;;3.95;;
39860;SDS011;25529;49.346;20.886;2023-01-31T13:14:19;16.65;;;4.25;;
39860;SDS011;25529;49.346;20.886;2023-01-31T13:16:48;18.73;;;4.55;;
39860;SDS011;25529;49.346;20.886;2023-01-31T13:19:21;17.10;;;4.35;;
39860;SDS011;25529;49.346;20.886;2023-01-31T13:21:49;17.35;;;4.00;;
39860;SDS011;25529;49.346;20.886;2023-01-31T13:24:19;16.63;;;4.43;;
39860;SDS011;25529;49.346;20.886;2023-01-31T13:26:47;13.20;;;4.40;;
39860;SDS011;25529;49.346;20.886;2023-01-31T13:34:13;35.42;;;14.77;;
39860;SDS011;25529;49.346;20.886;2023-01-31T13:39:14;16.75;;;4.55;;
39860;SDS011;25529;49.346;20.886;2023-01-31T13:41:50;20.42;;;4.95;;
39860;SDS011;25529;49.346;20.886;2023-01-31T13:44:16;16.70;;;4.45;;
39860;SDS011;25529;49.346;20.886;2023-01-31T13:51:50;20.15;;;5.65;;
39860;SDS011;25529;49.346;20.886;2023-01-31T13:54:18;18.02;;;4.53;;
39860;SDS011;25529;49.346;20.886;2023-01-31T13:56:56;18.52;;;4.93;;
39860;SDS011;25529;49.346;20.886;2023-01-31T13:59:24;15.88;;;4.28;;
39860;SDS011;25529;49.346;20.886;2023-01-31T14:01:50;18.00;;;4.50;;
39860;SDS011;25529;49.346;20.886;2023-01-31T14:04:19;17.40;;;4.63;;
39860;SDS011;25529;49.346;20.886;2023-01-31T14:09:29;14.88;;;4.40;;
39860;SDS011;25529;49.346;20.886;2023-01-31T14:11:59;16.52;;;4.20;;
39860;SDS011;25529;49.346;20.886;2023-01-31T14:22:15;15.50;;;4.25;;
39860;SDS011;25529;49.346;20.886;2023-01-31T14:27:17;18.90;;;4.63;;
39860;SDS011;25529;49.346;20.886;2023-01-31T14:29:44;19.55;;;5.30;;
39860;SDS011;25529;49.346;20.886;2023-01-31T14:32:24;20.13;;;5.70;;
39860;SDS011;25529;49.346;20.886;2023-01-31T14:35:03;17.33;;;4.65;;
39860;SDS011;25529;49.346;20.886;2023-01-31T14:40:28;17.63;;;4.80;;
39860;SDS011;25529;49.346;20.886;2023-01-31T14:43:40;17.30;;;4.53;;
39860;SDS011;25529;49.346;20.886;2023-01-31T14:46:57;18.85;;;5.57;;
39860;SDS011;25529;49.346;20.886;2023-01-31T14:49:10;25.50;;;9.00;;
39860;SDS011;25529;49.346;20.886;2023-01-31T14:51:42;48.38;;;20.58;;
39860;SDS011;25529;49.346;20.886;2023-01-31T14:57:34;19.52;;;5.45;;
39860;SDS011;25529;49.346;20.886;2023-01-31T14:59:57;17.83;;;4.70;;
39860;SDS011;25529;49.346;20.886;2023-01-31T15:07:35;19.27;;;5.10;;
39860;SDS011;25529;49.346;20.886;2023-01-31T15:16:53;22.23;;;5.57;;
39860;SDS011;25529;49.346;20.886;2023-01-31T15:22:27;16.97;;;5.10;;
39860;SDS011;25529;49.346;20.886;2023-01-31T15:24:57;19.63;;;5.15;;
39860;SDS011;25529;49.346;20.886;2023-01-31T15:31:43;18.05;;;4.85;;
39860;SDS011;25529;49.346;20.886;2023-01-31T15:34:06;20.55;;;5.63;;
39860;SDS011;25529;49.346;20.886;2023-01-31T15:42:23;20.73;;;6.03;;
39860;SDS011;25529;49.346;20.886;2023-01-31T15:45:11;21.25;;;5.75;;
39860;SDS011;25529;49.346;20.886;2023-01-31T15:50:24;22.08;;;5.75;;
39860;SDS011;25529;49.346;20.886;2023-01-31T15:52:50;22.35;;;5.70;;
39860;SDS011;25529;49.346;20.886;2023-01-31T15:55:26;19.02;;;5.35;;
39860;SDS011;25529;49.346;20.886;2023-01-31T15:57:56;21.90;;;5.70;;
39860;SDS011;25529;49.346;20.886;2023-01-31T16:00:32;23.02;;;5.80;;
39860;SDS011;25529;49.346;20.886;2023-01-31T16:03:01;18.05;;;5.57;;
39860;SDS011;25529;49.346;20.886;2023-01-31T16:05:33;19.75;;;5.38;;
39860;SDS011;25529;49.346;20.886;2023-01-31T16:23:31;19.23;;;5.57;;
39860;SDS011;25529;49.346;20.886;2023-01-31T16:26:05;22.25;;;5.38;;
39860;SDS011;25529;49.346;20.886;2023-01-31T16:51:01;19.70;;;5.40;;
39860;SDS011;25529;49.346;20.886;2023-01-31T17:23:04;21.80;;;6.43;;
39860;SDS011;25529;49.346;20.886;2023-01-31T17:44:32;20.30;;;6.13;;
39860;SDS011;25529;49.346;20.886;2023-01-31T17:57:07;25.10;;;7.30;;
39860;SDS011;25529;49.346;20.886;2023-01-31T19:29:44;26.05;;;9.38;;
39860;SDS011;25529;49.346;20.886;2023-01-31T19:32:30;24.67;;;9.10;;
39860;SDS011;25529;49.346;20.886;2023-01-31T19:34:55;25.38;;;9.48;;
39860;SDS011;25529;49.346;20.886;2023-01-31T19:40:06;25.83;;;9.68;;
39860;SDS011;25529;49.346;20.886;2023-01-31T19:43:16;28.30;;;9.32;;
39860;SDS011;25529;49.346;20.886;2023-01-31T19:48:47;31.25;;;10.98;;
39860;SDS011;25529;49.346;20.886;2023-01-31T19:51:13;33.22;;;11.80;;
39860;SDS011;25529;49.346;20.886;2023-01-31T19:53:39;30.77;;;11.63;;
39860;SDS011;25529;49.346;20.886;2023-01-31T19:56:33;33.03;;;11.77;;
39860;SDS011;25529;49.346;20.886;2023-01-31T19:59:19;27.27;;;10.48;;
39860;SDS011;25529;49.346;20.886;2023-01-31T20:04:10;31.67;;;11.55;;
39860;SDS011;25529;49.346;20.886;2023-01-31T20:06:48;29.35;;;10.77;;
39860;SDS011;25529;49.346;20.886;2023-01-31T20:14:50;24.85;;;9.32;;
39860;SDS011;25529;49.346;20.886;2023-01-31T20:17:29;29.67;;;10.20;;
39860;SDS011;25529;49.346;20.886;2023-01-31T20:20:03;24.55;;;7.95;;
39860;SDS011;25529;49.346;20.886;2023-01-31T20:22:39;26.83;;;8.73;;
39860;SDS011;25529;49.346;20.886;2023-01-31T20:25:14;28.30;;;9.23;;
39860;SDS011;25529;49.346;20.886;2023-01-31T20:27:39;26.30;;;10.02;;
39860;SDS011;25529;49.346;20.886;2023-01-31T20:33:06;24.60;;;8.15;;
39860;SDS011;25529;49.346;20.886;2023-01-31T20:35:33;23.17;;;7.10;;
39860;SDS011;25529;49.346;20.886;2023-01-31T20:38:06;22.73;;;7.25;;
39860;SDS011;25529;49.346;20.886;2023-01-31T20:43:08;20.98;;;5.97;;
39860;SDS011;25529;49.346;20.886;2023-01-31T20:48:13;20.58;;;6.05;;
39860;SDS011;25529;49.346;20.886;2023-01-31T20:50:39;19.05;;;5.85;;
39860;SDS011;25529;49.346;20.886;2023-01-31T20:56:34;23.65;;;6.63;;
39860;SDS011;25529;49.346;20.886;2023-01-31T21:01:53;21.90;;;6.55;;
39860;SDS011;25529;49.346;20.886;2023-01-31T21:04:21;21.10;;;6.63;;
39860;SDS011;25529;49.346;20.886;2023-01-31T21:06:47;22.00;;;7.35;;
39860;SDS011;25529;49.346;20.886;2023-01-31T21:09:24;24.73;;;7.22;;
